Time;durP1;ratioP1;P1;durP2;ratioP2;P2;SDS_P1;SDS_P2;PMS_P1;PMS_P2;Temp;Humidity;BMP_temperature;BMP_pressure;BME280_temperature;BME280_humidity;BME280_pressure;Samples;Min_cycle;Max_cycle;Signal;HPM_P1;HPM_P2
2023/07/30 00:02:16;;;;;;;;;;;;;;;26.71;33.66;99461.88;6152105;23;20582;-63
2023/07/30 00:04:42;;;;;;;;;;;;;;;26.62;33.75;99453.63;6153300;23;19909;-64
2023/07/30 00:07:07;;;;;;;;;;;;;;;26.61;33.45;99454.75;6154400;23;19908;-64
2023/07/30 00:09:32;;;;;;;;;;;;;;;26.59;33.74;99456.97;6153593;23;20415;-69
2023/07/30 00:11:58;;;;;;;;;;;;;;;26.54;33.82;99459.09;6152995;23;19990;-68
2023/07/30 00:14:23;;;;;;;;;;;;;;;26.46;34.07;99460.72;6102194;23;20319;-72
2023/07/30 00:16:48;;;;;;;;;;;;;;;26.43;33.81;99455.88;6152954;23;19908;-72
2023/07/30 00:19:14;;;;;;;;;;;;;;;26.51;33.66;99454.25;6102154;23;19914;-72
2023/07/30 00:21:39;;;;;;;;;;;;;;;26.50;33.75;99449.88;6129243;23;19913;-72
2023/07/30 00:24:04;;;;;;;;;;;;;;;26.46;33.90;99455.22;6155612;23;20334;-72
2023/07/30 00:26:29;;;;;;;;;;;;;;;26.43;33.50;99450.38;6130482;23;19908;-72
2023/07/30 00:28:55;;;;;;;;;;;;;;;26.37;33.66;99451.66;6131311;23;19983;-72
2023/07/30 00:31:20;;;;;;;;;;;;;;;26.37;33.85;99446.16;6131240;23;20342;-72
2023/07/30 00:33:47;;;;;;;;;;;;;;;26.38;33.74;99448.59;6130831;23;19909;-72
2023/07/30 00:36:12;;;;;;;;;;;;;;;26.26;33.89;99440.16;6156735;23;19931;-72
2023/07/30 00:38:40;;;;;;;;;;;;;;;26.18;33.83;99441.78;6157251;23;19958;-72
2023/07/30 00:41:06;;;;;;;;;;;;;;;26.12;34.13;99440.31;6157216;23;19909;-72
2023/07/30 00:43:31;;;;;;;;;;;;;;;26.03;33.96;99445.00;6157142;23;19912;-72
2023/07/30 00:45:56;;;;;;;;;;;;;;;26.04;34.21;99430.94;6131041;23;20317;-73
2023/07/30 00:48:21;;;;;;;;;;;;;;;26.07;34.41;99441.28;6156280;23;19908;-72
2023/07/30 00:50:47;;;;;;;;;;;;;;;26.07;34.00;99446.78;6157007;23;19992;-72
2023/07/30 00:53:14;;;;;;;;;;;;;;;26.05;34.30;99449.06;6131289;23;19916;-72
2023/07/30 00:55:40;;;;;;;;;;;;;;;26.05;34.21;99446.31;6106495;23;19956;-72
2023/07/30 00:58:05;;;;;;;;;;;;;;;26.03;34.55;99447.75;6156965;23;19916;-72
2023/07/30 01:00:31;;;;;;;;;;;;;;;26.00;34.45;99451.97;6156854;23;19909;-72
2023/07/30 01:02:57;;;;;;;;;;;;;;;26.06;34.43;99449.88;6156713;23;20299;-72
2023/07/30 01:05:22;;;;;;;;;;;;;;;26.10;34.40;99445.34;6157213;23;19936;-72
2023/07/30 01:07:48;;;;;;;;;;;;;;;26.10;34.24;99447.28;6157020;23;19983;-72
2023/07/30 01:10:13;;;;;;;;;;;;;;;26.10;34.68;99445.34;6156701;23;19935;-72
2023/07/30 01:12:39;;;;;;;;;;;;;;;26.13;34.48;99443.88;6156943;23;19959;-72
2023/07/30 01:15:05;;;;;;;;;;;;;;;26.18;34.50;99449.22;6157135;23;20260;-72
2023/07/30 01:17:30;;;;;;;;;;;;;;;26.23;34.46;99446.31;6156890;23;19908;-72
2023/07/30 01:19:56;;;;;;;;;;;;;;;26.24;34.33;99448.75;6156824;23;19916;-73
2023/07/30 01:22:22;;;;;;;;;;;;;;;26.29;34.82;99441.47;6156674;23;19912;-72
2023/07/30 01:24:47;;;;;;;;;;;;;;;26.31;34.84;99433.69;6156792;23;20354;-72
2023/07/30 01:27:22;;;;;;;;;;;;;;;26.34;34.55;99436.59;6156974;23;19916;-72
2023/07/30 01:29:57;;;;;;;;;;;;;;;26.42;36.48;99441.28;6156977;23;19983;-72
2023/07/30 01:32:26;;;;;;;;;;;;;;;26.45;34.89;99435.13;6156334;23;19909;-72
2023/07/30 01:34:52;;;;;;;;;;;;;;;26.42;35.24;99437.72;6156784;23;19909;-72
2023/07/30 01:37:18;;;;;;;;;;;;;;;26.46;35.62;99446.97;6156537;23;19909;-72
2023/07/30 01:39:44;;;;;;;;;;;;;;;26.50;35.44;99439.66;6156681;23;19915;-72
2023/07/30 01:42:11;;;;;;;;;;;;;;;26.53;34.85;99439.03;6156096;23;19917;-72
2023/07/30 01:44:36;;;;;;;;;;;;;;;26.51;35.45;99433.03;6156276;23;19909;-72
2023/07/30 01:47:02;;;;;;;;;;;;;;;26.51;35.07;99435.78;6155557;23;19959;-72
2023/07/30 01:49:27;;;;;;;;;;;;;;;26.59;35.30;99434.94;6156463;23;19943;-72
2023/07/30 01:51:52;;;;;;;;;;;;;;;26.58;35.28;99436.09;6156513;23;19987;-72
2023/07/30 01:54:17;;;;;;;;;;;;;;;26.60;35.55;99420.09;6156284;23;19908;-72
2023/07/30 01:56:43;;;;;;;;;;;;;;;26.59;35.82;99423.94;6156439;23;19956;-72
2023/07/30 01:59:08;;;;;;;;;;;;;;;26.67;35.40;99432.53;6130414;23;20251;-72
2023/07/30 02:01:33;;;;;;;;;;;;;;;26.64;35.65;99420.25;6155991;23;20211;-72
2023/07/30 02:03:59;;;;;;;;;;;;;;;26.64;35.50;99428.50;6130388;23;19912;-72
2023/07/30 02:06:24;;;;;;;;;;;;;;;26.66;35.58;99426.22;6130297;23;19909;-72
2023/07/30 02:08:49;;;;;;;;;;;;;;;26.64;35.86;99425.75;6105615;23;20208;-72
2023/07/30 02:11:14;;;;;;;;;;;;;;;26.67;35.58;99425.13;6130060;23;19913;-72
2023/07/30 02:13:40;;;;;;;;;;;;;;;26.67;35.50;99430.63;6156151;23;19909;-72
2023/07/30 02:16:06;;;;;;;;;;;;;;;26.64;36.13;99425.75;6156083;23;20366;-72
2023/07/30 02:18:31;;;;;;;;;;;;;;;26.67;35.86;99422.34;6156286;23;20294;-72
2023/07/30 02:20:56;;;;;;;;;;;;;;;26.67;35.41;99425.13;6130014;23;19991;-72
2023/07/30 02:23:22;;;;;;;;;;;;;;;26.66;35.63;99426.22;6156086;23;19916;-72
2023/07/30 02:25:47;;;;;;;;;;;;;;;26.65;36.02;99419.09;6156067;23;19995;-72
2023/07/30 02:28:12;;;;;;;;;;;;;;;26.71;35.39;99425.25;6156163;23;19995;-72
2023/07/30 02:30:37;;;;;;;;;;;;;;;26.72;35.91;99422.16;6129873;23;19909;-72
2023/07/30 02:33:03;;;;;;;;;;;;;;;26.72;35.56;99422.16;6129822;23;20195;-72
2023/07/30 02:35:28;;;;;;;;;;;;;;;26.73;36.43;99425.75;6155908;23;20003;-72
2023/07/30 02:37:53;;;;;;;;;;;;;;;26.67;36.17;99419.59;6155817;23;19913;-72
2023/07/30 02:40:18;;;;;;;;;;;;;;;26.64;36.04;99418.28;6155913;23;19908;-72
2023/07/30 02:42:44;;;;;;;;;;;;;;;26.64;35.96;99423.81;6155788;23;19983;-72
2023/07/30 02:45:09;;;;;;;;;;;;;;;26.68;35.87;99418.44;6155811;23;20308;-72
2023/07/30 02:47:34;;;;;;;;;;;;;;;26.68;36.08;99412.13;6128554;23;19915;-72
2023/07/30 02:50:00;;;;;;;;;;;;;;;26.67;36.28;99416.03;6155480;23;19915;-72
2023/07/30 02:52:25;;;;;;;;;;;;;;;26.63;35.85;99418.63;6129669;23;20322;-72
2023/07/30 02:54:50;;;;;;;;;;;;;;;26.62;35.86;99419.78;6155767;23;19909;-72
2023/07/30 02:57:16;;;;;;;;;;;;;;;26.60;36.36;99416.53;6155775;23;19908;-72
2023/07/30 02:59:41;;;;;;;;;;;;;;;26.62;36.04;99408.75;6130057;23;19908;-72
2023/07/30 03:02:06;;;;;;;;;;;;;;;26.61;36.21;99412.63;6129121;23;19983;-72
2023/07/30 03:04:32;;;;;;;;;;;;;;;26.60;36.37;99413.78;6155757;23;19908;-72
2023/07/30 03:06:57;;;;;;;;;;;;;;;26.56;36.60;99413.59;6129734;23;20315;-72
2023/07/30 03:09:22;;;;;;;;;;;;;;;26.58;37.01;99414.06;6155429;23;19944;-72
2023/07/30 03:11:49;;;;;;;;;;;;;;;26.62;36.26;99406.00;6155586;23;19915;-72
2023/07/30 03:14:14;;;;;;;;;;;;;;;26.59;36.94;99412.91;6155346;23;19909;-72
2023/07/30 03:16:39;;;;;;;;;;;;;;;26.67;36.76;99407.75;6155658;23;19972;-72
2023/07/30 03:19:05;;;;;;;;;;;;;;;26.61;36.58;99405.16;6155518;23;19944;-72
2023/07/30 03:21:30;;;;;;;;;;;;;;;26.64;36.30;99406.47;6155628;23;20306;-72
2023/07/30 03:23:55;;;;;;;;;;;;;;;26.64;37.06;99401.78;6129246;23;19963;-72
2023/07/30 03:26:20;;;;;;;;;;;;;;;26.60;37.04;99408.28;6155370;23;19908;-72
2023/07/30 03:28:46;;;;;;;;;;;;;;;26.64;36.31;99411.97;6155433;23;19936;-72
2023/07/30 03:31:11;;;;;;;;;;;;;;;26.61;36.74;99405.16;6155446;23;19909;-72
2023/07/30 03:33:39;;;;;;;;;;;;;;;26.62;36.66;99408.75;6155283;23;19959;-72
2023/07/30 03:36:04;;;;;;;;;;;;;;;26.58;36.79;99405.00;6129108;23;20374;-72
2023/07/30 03:38:29;;;;;;;;;;;;;;;26.54;37.29;99406.78;6129153;23;19909;-72
2023/07/30 03:40:55;;;;;;;;;;;;;;;26.54;36.82;99398.50;6155608;23;20226;-72
2023/07/30 03:43:20;;;;;;;;;;;;;;;26.56;36.93;99391.56;6155199;23;19995;-72
2023/07/30 03:45:45;;;;;;;;;;;;;;;26.58;36.98;99402.25;6129097;23;20223;-72
2023/07/30 03:48:10;;;;;;;;;;;;;;;26.60;37.31;99408.28;6127971;23;19967;-72
2023/07/30 03:50:36;;;;;;;;;;;;;;;26.65;37.00;99403.41;6155137;23;19909;-72
2023/07/30 03:53:01;;;;;;;;;;;;;;;26.66;36.59;99398.69;6128820;23;20242;-72
2023/07/30 03:55:26;;;;;;;;;;;;;;;26.72;36.82;99408.38;6154844;23;19909;-72
2023/07/30 03:57:52;;;;;;;;;;;;;;;26.73;36.86;99410.03;6129174;23;20199;-72
2023/07/30 04:00:17;;;;;;;;;;;;;;;26.76;36.65;99409.34;6155026;23;20311;-72
2023/07/30 04:02:42;;;;;;;;;;;;;;;26.83;36.58;99412.41;6154940;23;19936;-72
2023/07/30 04:05:08;;;;;;;;;;;;;;;26.89;36.64;99407.53;6155030;23;19940;-72
2023/07/30 04:07:33;;;;;;;;;;;;;;;26.91;36.75;99404.44;6154787;23;19909;-72
2023/07/30 04:10:01;;;;;;;;;;;;;;;26.92;36.68;99406.88;6154706;23;19915;-72
2023/07/30 04:12:27;;;;;;;;;;;;;;;26.93;36.68;99407.69;6155271;23;19908;-72
2023/07/30 04:14:52;;;;;;;;;;;;;;;26.96;36.42;99404.28;6156097;23;19909;-72
2023/07/30 04:17:17;;;;;;;;;;;;;;;27.00;36.36;99407.97;6155866;23;19955;-72
2023/07/30 04:19:43;;;;;;;;;;;;;;;27.01;36.30;99401.34;6155680;23;20004;-72
2023/07/30 04:22:08;;;;;;;;;;;;;;;27.06;36.00;99401.19;6155340;23;19917;-72
2023/07/30 04:24:33;;;;;;;;;;;;;;;27.04;36.32;99395.16;6104844;23;19963;-72
2023/07/30 04:27:00;;;;;;;;;;;;;;;27.07;36.41;99401.97;6104898;23;19909;-72
2023/07/30 04:29:25;;;;;;;;;;;;;;;27.08;36.10;99409.91;6155066;23;20027;-72
2023/07/30 04:31:50;;;;;;;;;;;;;;;27.09;36.09;99402.44;6155670;23;19913;-72
2023/07/30 04:34:16;;;;;;;;;;;;;;;27.12;35.87;99404.56;6104859;23;20384;-72
2023/07/30 04:36:41;;;;;;;;;;;;;;;27.15;36.05;99403.88;6155119;23;19909;-73
2023/07/30 04:39:06;;;;;;;;;;;;;;;27.15;36.13;99403.88;6155101;23;19909;-73
2023/07/30 04:41:32;;;;;;;;;;;;;;;27.18;35.95;99403.22;6154868;23;20192;-73
2023/07/30 04:43:57;;;;;;;;;;;;;;;27.16;36.08;99400.00;6128865;23;20415;-72
2023/07/30 04:46:22;;;;;;;;;;;;;;;27.15;36.19;99401.13;6128062;23;19909;-72
2023/07/30 04:48:47;;;;;;;;;;;;;;;27.16;36.11;99398.03;6154717;23;20211;-72
2023/07/30 04:51:13;;;;;;;;;;;;;;;27.18;36.44;99406.78;6154975;23;19909;-72
2023/07/30 04:53:38;;;;;;;;;;;;;;;27.15;36.00;99404.69;6128956;23;19909;-72
2023/07/30 04:56:03;;;;;;;;;;;;;;;27.19;35.92;99402.06;6155021;23;19915;-72
2023/07/30 04:58:28;;;;;;;;;;;;;;;27.25;35.66;99395.25;6154869;23;20303;-72
2023/07/30 05:00:54;;;;;;;;;;;;;;;27.24;35.99;99402.69;6104383;23;19939;-72
2023/07/30 05:03:19;;;;;;;;;;;;;;;27.23;36.04;99395.56;6154436;23;19978;-72
2023/07/30 05:05:44;;;;;;;;;;;;;;;27.24;35.98;99396.38;6104482;23;20334;-72
2023/07/30 05:08:09;;;;;;;;;;;;;;;27.22;36.15;99396.69;6155792;23;19987;-72
2023/07/30 05:10:35;;;;;;;;;;;;;;;27.27;35.95;99389.44;6156255;23;19913;-72
2023/07/30 05:13:00;;;;;;;;;;;;;;;27.34;35.52;99400.72;6130223;23;19909;-72
2023/07/30 05:15:25;;;;;;;;;;;;;;;27.34;35.94;99398.81;6156344;23;19948;-72
2023/07/30 05:17:51;;;;;;;;;;;;;;;27.41;35.77;99401.84;6155989;23;19963;-72
2023/07/30 05:20:16;;;;;;;;;;;;;;;27.39;36.07;99398.59;6156038;23;19909;-72
2023/07/30 05:22:41;;;;;;;;;;;;;;;27.41;36.24;99399.09;6156180;23;19932;-72
2023/07/30 05:25:07;;;;;;;;;;;;;;;27.44;36.14;99402.31;6130419;23;19928;-72
2023/07/30 05:27:32;;;;;;;;;;;;;;;27.48;36.02;99400.50;6156152;23;20279;-72
2023/07/30 05:29:57;;;;;;;;;;;;;;;27.50;35.88;99404.53;6130284;23;19947;-72
2023/07/30 05:32:23;;;;;;;;;;;;;;;27.53;35.75;99403.88;6156361;23;20350;-72
2023/07/30 05:34:48;;;;;;;;;;;;;;;27.57;35.66;99395.75;6156146;23;19916;-72
2023/07/30 05:37:13;;;;;;;;;;;;;;;27.58;35.73;99389.91;6156530;23;19916;-72
2023/07/30 05:39:38;;;;;;;;;;;;;;;27.59;35.62;99396.22;6156289;23;19915;-72
2023/07/30 05:42:04;;;;;;;;;;;;;;;27.64;35.74;99395.22;6156214;23;19913;-72
2023/07/30 05:44:29;;;;;;;;;;;;;;;27.67;35.52;99391.78;6156069;23;19975;-72
2023/07/30 05:46:54;;;;;;;;;;;;;;;27.67;35.49;99398.09;6155304;23;20285;-72
2023/07/30 05:49:20;;;;;;;;;;;;;;;27.68;35.50;99396.19;6156327;23;19912;-72
2023/07/30 05:51:45;;;;;;;;;;;;;;;27.68;35.64;99396.97;6130269;23;19920;-72
2023/07/30 05:54:11;;;;;;;;;;;;;;;27.73;35.75;99395.97;6155971;23;19919;-72
2023/07/30 05:56:36;;;;;;;;;;;;;;;27.78;36.16;99395.78;6156211;23;19995;-72
2023/07/30 05:59:01;;;;;;;;;;;;;;;27.77;36.32;99394.16;6156136;23;19908;-72
2023/07/30 06:01:26;;;;;;;;;;;;;;;27.66;36.16;99396.50;6130052;23;19908;-72
2023/07/30 06:03:52;;;;;;;;;;;;;;;27.74;36.80;99392.06;6156069;23;19940;-72
2023/07/30 06:06:17;;;;;;;;;;;;;;;27.66;36.52;99385.47;6105721;23;19915;-72
2023/07/30 06:08:44;;;;;;;;;;;;;;;27.71;36.43;99388.03;6156221;23;19916;-72
2023/07/30 06:11:09;;;;;;;;;;;;;;;27.73;36.08;99387.69;6156432;23;19909;-72
2023/07/30 06:13:35;;;;;;;;;;;;;;;27.68;36.54;99391.47;6156279;23;20006;-72
2023/07/30 06:16:00;;;;;;;;;;;;;;;27.70;35.98;99391.13;6129948;23;19915;-72
2023/07/30 06:18:25;;;;;;;;;;;;;;;27.73;36.26;99390.44;6155716;23;19991;-72
2023/07/30 06:20:51;;;;;;;;;;;;;;;27.74;36.87;99392.88;6105582;23;19912;-72
2023/07/30 06:23:16;;;;;;;;;;;;;;;27.77;36.57;99394.16;6155488;23;19980;-73
2023/07/30 06:25:41;;;;;;;;;;;;;;;27.78;36.72;99393.81;6155873;23;20000;-72
2023/07/30 06:28:06;;;;;;;;;;;;;;;27.78;36.62;99390.25;6156072;23;19916;-72
2023/07/30 06:30:32;;;;;;;;;;;;;;;27.72;37.03;99397.13;6156247;23;19908;-73
2023/07/30 06:32:57;;;;;;;;;;;;;;;27.69;37.34;99389.50;6156299;23;19908;-72
2023/07/30 06:35:23;;;;;;;;;;;;;;;27.77;36.63;99385.88;6156152;23;20374;-72
2023/07/30 06:37:49;;;;;;;;;;;;;;;27.86;37.02;99394.91;6156041;23;19913;-72
2023/07/30 06:40:14;;;;;;;;;;;;;;;27.83;37.12;99397.53;6156066;23;19913;-72
2023/07/30 06:42:40;;;;;;;;;;;;;;;27.86;37.18;99396.84;6155788;23;19909;-72
2023/07/30 06:45:05;;;;;;;;;;;;;;;27.85;37.60;99398.81;6155445;23;20003;-73
2023/07/30 06:47:30;;;;;;;;;;;;;;;27.87;37.01;99398.47;6128326;23;19947;-72
2023/07/30 06:49:56;;;;;;;;;;;;;;;27.94;37.54;99391.31;6155330;23;19916;-72
2023/07/30 06:52:23;;;;;;;;;;;;;;;28.06;36.62;99392.50;6155013;23;19908;-72
2023/07/30 06:54:48;;;;;;;;;;;;;;;28.10;37.02;99398.97;6129169;23;20215;-72
2023/07/30 06:57:15;;;;;;;;;;;;;;;28.12;37.30;99393.91;6155531;23;19962;-72
2023/07/30 06:59:40;;;;;;;;;;;;;;;28.11;37.16;99395.06;6155705;23;19908;-72
2023/07/30 07:02:06;;;;;;;;;;;;;;;28.16;37.25;99400.41;6104578;23;19927;-72
2023/07/30 07:04:31;;;;;;;;;;;;;;;28.24;37.19;99399.50;6155880;23;19916;-70
2023/07/30 07:06:56;;;;;;;;;;;;;;;28.34;36.75;99392.75;6155895;23;20393;-70
2023/07/30 07:09:22;;;;;;;;;;;;;;;28.45;36.66;99395.91;6130033;23;19987;-73
2023/07/30 07:11:47;;;;;;;;;;;;;;;28.44;36.75;99397.06;6155671;23;19932;-73
2023/07/30 07:14:13;;;;;;;;;;;;;;;28.33;37.21;99391.94;6155385;23;19908;-74
2023/07/30 07:16:38;;;;;;;;;;;;;;;28.37;36.56;99392.88;6129673;23;19955;-72
2023/07/30 07:19:03;;;;;;;;;;;;;;;28.33;36.72;99393.91;6129489;23;19983;-72
2023/07/30 07:21:29;;;;;;;;;;;;;;;28.45;36.97;99393.13;6155634;23;19988;-72
2023/07/30 07:23:55;;;;;;;;;;;;;;;28.46;37.01;99392.00;6155491;23;19908;-72
2023/07/30 07:26:20;;;;;;;;;;;;;;;28.43;36.91;99396.22;6155617;23;19915;-72
2023/07/30 07:28:46;;;;;;;;;;;;;;;28.54;36.82;99383.63;6155432;23;19913;-72
2023/07/30 07:31:11;;;;;;;;;;;;;;;28.58;36.99;99394.81;6155021;23;19923;-72
2023/07/30 07:33:37;;;;;;;;;;;;;;;28.59;36.55;99390.91;6155521;23;19939;-72
2023/07/30 07:36:08;;;;;;;;;;;;;;;28.63;36.74;99385.50;6155201;23;19908;-72
2023/07/30 07:38:34;;;;;;;;;;;;;;;28.75;36.47;99389.13;6129289;23;19909;-72
2023/07/30 07:41:02;;;;;;;;;;;;;;;28.83;36.34;99387.41;6155455;23;19909;-72
2023/07/30 07:43:28;;;;;;;;;;;;;;;28.85;35.96;99390.63;6128779;23;20242;-71
2023/07/30 07:45:53;;;;;;;;;;;;;;;28.83;35.97;99387.41;6128786;23;19909;-71
2023/07/30 07:48:19;;;;;;;;;;;;;;;28.79;36.16;99386.47;6154159;23;19913;-72
2023/07/30 07:50:44;;;;;;;;;;;;;;;28.65;36.40;99384.00;6154857;23;19909;-71
2023/07/30 07:53:10;;;;;;;;;;;;;;;28.54;36.68;99382.84;6154851;23;19936;-71
2023/07/30 07:55:35;;;;;;;;;;;;;;;28.52;36.68;99390.63;6154980;23;19960;-71
2023/07/30 07:58:00;;;;;;;;;;;;;;;28.40;36.65;99388.66;6155007;23;19908;-71
2023/07/30 08:00:25;;;;;;;;;;;;;;;28.48;36.14;99375.88;6155133;23;19919;-72
2023/07/30 08:02:51;;;;;;;;;;;;;;;28.46;37.05;99380.94;6154959;23;19975;-72
2023/07/30 08:05:19;;;;;;;;;;;;;;;28.73;36.50;99383.13;6128982;23;20070;-72
2023/07/30 08:07:47;;;;;;;;;;;;;;;28.75;36.47;99378.06;6155154;23;19920;-72
2023/07/30 08:10:13;;;;;;;;;;;;;;;28.84;36.16;99382.69;6128879;23;20332;-73
2023/07/30 08:12:38;;;;;;;;;;;;;;;29.07;35.54;99377.53;6155224;23;19983;-72
2023/07/30 08:15:03;;;;;;;;;;;;;;;29.26;36.08;99382.50;6155313;23;19909;-72
2023/07/30 08:17:29;;;;;;;;;;;;;;;29.21;35.52;99379.97;6129134;23;19916;-73
2023/07/30 08:19:54;;;;;;;;;;;;;;;29.11;35.67;99383.97;6155041;23;19909;-73
2023/07/30 08:22:22;;;;;;;;;;;;;;;29.16;35.60;99389.31;6154991;23;19999;-72
2023/07/30 08:24:54;;;;;;;;;;;;;;;29.23;35.25;99380.44;6129099;23;19908;-72
2023/07/30 08:27:19;;;;;;;;;;;;;;;29.34;35.19;99384.34;6128942;23;19908;-72
2023/07/30 08:29:45;;;;;;;;;;;;;;;29.26;35.58;99379.75;6155271;23;19951;-72
2023/07/30 08:32:10;;;;;;;;;;;;;;;29.20;35.20;99387.47;6155093;23;19909;-72
2023/07/30 08:34:35;;;;;;;;;;;;;;;29.29;35.09;99376.28;6128905;23;19928;-72
2023/07/30 08:37:01;;;;;;;;;;;;;;;29.26;35.05;99379.75;6154970;23;19983;-72
2023/07/30 08:39:26;;;;;;;;;;;;;;;29.24;35.12;99377.31;6155993;23;19956;-72
2023/07/30 08:41:51;;;;;;;;;;;;;;;29.50;34.43;99373.41;6156985;23;19920;-72
2023/07/30 08:44:17;;;;;;;;;;;;;;;29.60;34.70;99374.88;6157428;23;19975;-72
2023/07/30 08:46:42;;;;;;;;;;;;;;;29.66;34.12;99374.31;6130033;23;19924;-73
2023/07/30 08:49:07;;;;;;;;;;;;;;;29.73;33.93;99370.91;6157031;23;19909;-73
2023/07/30 08:51:36;;;;;;;;;;;;;;;29.92;34.01;99375.84;6157012;23;19909;-72
2023/07/30 08:54:02;;;;;;;;;;;;;;;29.92;33.39;99376.69;6130820;23;19909;-73
2023/07/30 08:56:27;;;;;;;;;;;;;;;30.04;33.53;99375.03;6130723;23;19979;-73
2023/07/30 08:58:57;;;;;;;;;;;;;;;30.18;33.65;99369.91;6156877;23;19908;-73
2023/07/30 09:01:26;;;;;;;;;;;;;;;30.31;33.33;99365.09;6130745;23;19909;-73
2023/07/30 09:03:52;;;;;;;;;;;;;;;30.40;32.30;99367.75;6157328;23;19921;-74
2023/07/30 09:06:18;;;;;;;;;;;;;;;30.23;32.77;99372.41;6106369;23;19912;-73
2023/07/30 09:08:43;;;;;;;;;;;;;;;30.36;32.52;99369.63;6156785;23;19931;-73
2023/07/30 09:11:09;;;;;;;;;;;;;;;30.45;32.24;99365.53;6157010;23;19967;-73
2023/07/30 09:13:43;;;;;;;;;;;;;;;30.43;32.36;99367.84;6156945;23;19909;-73
2023/07/30 09:16:12;;;;;;;;;;;;;;;30.66;32.12;99362.53;6156912;23;20406;-73
2023/07/30 09:18:38;;;;;;;;;;;;;;;30.48;32.01;99370.38;6156806;23;19912;-73
2023/07/30 09:21:04;;;;;;;;;;;;;;;30.45;32.44;99375.81;6156920;23;19908;-73
2023/07/30 09:23:30;;;;;;;;;;;;;;;30.42;32.05;99377.34;6156555;23;19964;-73
2023/07/30 09:25:57;;;;;;;;;;;;;;;30.41;32.31;99374.91;6156466;23;19908;-73
2023/07/30 09:28:30;;;;;;;;;;;;;;;30.20;32.84;99375.91;6156408;23;19909;-73
2023/07/30 09:30:59;;;;;;;;;;;;;;;30.11;32.45;99375.25;6156690;23;20242;-73
2023/07/30 09:33:24;;;;;;;;;;;;;;;29.96;33.09;99382.31;6156656;23;19909;-73
2023/07/30 09:35:50;;;;;;;;;;;;;;;29.56;32.76;99379.50;6156633;23;20562;-73
2023/07/30 09:38:15;;;;;;;;;;;;;;;29.26;33.50;99393.56;6130127;23;19919;-73
2023/07/30 09:40:42;;;;;;;;;;;;;;;29.19;33.60;99391.38;6156466;23;20250;-73
2023/07/30 09:43:09;;;;;;;;;;;;;;;29.06;34.33;99396.06;6130025;23;19983;-73
2023/07/30 09:45:35;;;;;;;;;;;;;;;28.63;36.41;99402.09;6156270;23;19991;-73
2023/07/30 09:48:02;;;;;;;;;;;;;;;28.35;37.39;99413.69;6155508;23;19944;-73
2023/07/30 09:50:28;;;;;;;;;;;;;;;28.02;38.28;99410.91;6130086;23;19909;-73
2023/07/30 09:52:54;;;;;;;;;;;;;;;27.23;41.36;99427.84;6156112;23;19936;-71
2023/07/30 09:55:19;;;;;;;;;;;;;;;26.71;42.70;99420.56;6131515;23;19909;-68
2023/07/30 09:57:44;;;;;;;;;;;;;;;26.39;43.63;99417.19;6157463;23;19909;-67
2023/07/30 10:00:10;;;;;;;;;;;;;;;26.38;43.90;99414.75;6158700;23;19928;-68
2023/07/30 10:02:37;;;;;;;;;;;;;;;26.56;43.72;99418.28;6158777;23;19924;-69
2023/07/30 10:05:04;;;;;;;;;;;;;;;26.88;43.85;99407.88;6132686;23;19920;-70
2023/07/30 10:07:30;;;;;;;;;;;;;;;27.32;44.27;99409.34;6159053;23;20297;-71
2023/07/30 10:09:58;;;;;;;;;;;;;;;27.73;44.32;99415.28;6157513;23;19916;-71
2023/07/30 10:12:27;;;;;;;;;;;;;;;28.21;44.29;99416.72;6156423;23;19915;-72
2023/07/30 10:14:52;;;;;;;;;;;;;;;28.79;44.08;99410.53;6156354;23;19965;-72
2023/07/30 10:17:18;;;;;;;;;;;;;;;29.15;44.12;99407.06;6156255;23;19965;-72
2023/07/30 10:19:47;;;;;;;;;;;;;;;29.39;44.72;99409.00;6156011;23;19936;-72
2023/07/30 10:22:12;;;;;;;;;;;;;;;29.56;44.76;99405.19;6129853;23;19935;-72
2023/07/30 10:24:37;;;;;;;;;;;;;;;29.77;44.11;99405.06;6129977;23;19913;-72
2023/07/30 10:27:06;;;;;;;;;;;;;;;29.75;43.60;99410.16;6156197;23;20361;-73
2023/07/30 10:29:34;;;;;;;;;;;;;;;29.67;43.16;99400.81;6156201;23;19915;-72
2023/07/30 10:32:00;;;;;;;;;;;;;;;29.76;43.52;99408.22;6156422;23;19908;-71
2023/07/30 10:34:27;;;;;;;;;;;;;;;29.65;43.19;99403.13;6156591;23;19915;-72
2023/07/30 10:36:54;;;;;;;;;;;;;;;29.43;42.72;99400.84;6156747;23;19912;-71
2023/07/30 10:39:21;;;;;;;;;;;;;;;29.26;43.26;99396.34;6156354;23;19908;-71
2023/07/30 10:41:52;;;;;;;;;;;;;;;29.10;42.87;99399.78;6156196;23;19963;-72
2023/07/30 10:44:22;;;;;;;;;;;;;;;28.68;43.40;99410.19;6129588;23;19909;-72
2023/07/30 10:46:47;;;;;;;;;;;;;;;28.23;43.42;99392.38;6154992;23;19916;-72
2023/07/30 10:49:13;;;;;;;;;;;;;;;27.99;44.03;99404.09;6156139;23;19909;-73
2023/07/30 10:51:38;;;;;;;;;;;;;;;27.69;44.65;99395.84;6130376;23;19909;-70
2023/07/30 10:54:05;;;;;;;;;;;;;;;27.75;44.96;99402.78;6156455;23;19913;-71
2023/07/30 10:56:31;;;;;;;;;;;;;;;27.54;44.62;99391.69;6155828;23;19983;-69
2023/07/30 10:58:57;;;;;;;;;;;;;;;27.35;44.93;99402.34;6155843;23;20299;-70
2023/07/30 11:01:26;;;;;;;;;;;;;;;27.27;44.29;99400.47;6155514;23;19908;-71
2023/07/30 11:03:52;;;;;;;;;;;;;;;27.46;45.04;99405.56;6154985;23;19927;-71
2023/07/30 11:06:24;;;;;;;;;;;;;;;27.62;45.24;99406.59;6155243;23;19987;-71
2023/07/30 11:08:49;;;;;;;;;;;;;;;27.91;45.72;99407.72;6155416;23;19909;-71
2023/07/30 11:11:15;;;;;;;;;;;;;;;28.32;44.88;99408.84;6155599;23;20183;-71
2023/07/30 11:13:42;;;;;;;;;;;;;;;28.63;45.29;99399.34;6155173;23;19908;-71
2023/07/30 11:16:08;;;;;;;;;;;;;;;29.16;45.13;99408.69;6154826;23;19908;-71
2023/07/30 11:18:36;;;;;;;;;;;;;;;29.25;43.85;99409.38;6155107;23;19984;-71
2023/07/30 11:21:03;;;;;;;;;;;;;;;29.26;42.88;99412.94;6155451;23;19909;-71
2023/07/30 11:23:28;;;;;;;;;;;;;;;29.61;42.66;99416.03;6129095;23;19913;-71
2023/07/30 11:25:53;;;;;;;;;;;;;;;29.56;42.13;99415.47;6128984;23;20044;-71
2023/07/30 11:28:29;;;;;;;;;;;;;;;29.51;41.65;99410.97;6155481;23;19983;-71
2023/07/30 11:30:55;;;;;;;;;;;;;;;29.86;43.56;99411.28;6155315;23;20208;-72
2023/07/30 11:33:20;;;;;;;;;;;;;;;29.78;40.79;99414.22;6155386;23;19908;-74
2023/07/30 11:35:46;;;;;;;;;;;;;;;29.75;41.67;99412.91;6155277;23;19912;-74
2023/07/30 11:38:12;;;;;;;;;;;;;;;30.02;42.15;99414.13;6155213;23;19912;-76
2023/07/30 11:40:38;;;;;;;;;;;;;;;30.28;40.81;99415.69;6155266;23;19963;-74
2023/07/30 11:43:04;;;;;;;;;;;;;;;30.55;41.98;99411.28;6154865;23;19913;-73
2023/07/30 11:45:29;;;;;;;;;;;;;;;30.73;42.27;99405.44;6155332;23;19975;-74
2023/07/30 11:48:05;;;;;;;;;;;;;;;31.10;43.58;99394.16;6128946;23;19947;-75
2023/07/30 11:50:41;;;;;;;;;;;;;;;31.32;41.44;99401.03;6155850;23;19960;-73
2023/07/30 11:53:07;;;;;;;;;;;;;;;31.67;43.77;99395.53;6155403;23;19935;-65
2023/07/30 11:55:39;;;;;;;;;;;;;;;31.96;43.71;99396.94;6155555;23;19908;-66
2023/07/30 11:58:05;;;;;;;;;;;;;;;32.17;43.62;99393.84;6155245;23;19915;-66
2023/07/30 12:00:31;;;;;;;;;;;;;;;32.40;43.20;99398.66;6136875;23;20461;-65
2023/07/30 12:02:59;;;;;;;;;;;;;;;32.78;42.47;99397.00;6126010;23;19928;-65
2023/07/30 12:05:32;;;;;;;;;;;;;;;32.59;38.04;99395.06;6154152;23;19991;-66
2023/07/30 12:07:57;;;;;;;;;;;;;;;32.78;41.90;99392.25;6128237;23;20290;-65
2023/07/30 12:10:23;;;;;;;;;;;;;;;32.95;40.24;99396.53;6153861;23;19912;-65
2023/07/30 12:12:52;;;;;;;;;;;;;;;33.24;40.00;99393.44;6153445;23;19908;-66
2023/07/30 12:15:17;;;;;;;;;;;;;;;33.27;37.49;99390.72;6155220;23;19908;-64
2023/07/30 12:17:45;;;;;;;;;;;;;;;33.56;37.43;99391.97;6155030;23;19915;-64
2023/07/30 12:20:11;;;;;;;;;;;;;;;33.76;38.41;99391.84;6156428;23;19936;-64
2023/07/30 12:22:38;;;;;;;;;;;;;;;33.82;38.02;99387.53;6157711;23;19963;-62
2023/07/30 12:25:04;;;;;;;;;;;;;;;33.75;36.21;99393.03;6129877;23;19908;-64
2023/07/30 12:27:29;;;;;;;;;;;;;;;33.92;39.35;99381.31;6156107;23;19908;-66
2023/07/30 12:29:54;;;;;;;;;;;;;;;34.38;34.46;99373.91;6156753;23;19916;-65
2023/07/30 12:32:20;;;;;;;;;;;;;;;34.35;33.99;99380.28;6156393;23;20278;-65
2023/07/30 12:34:45;;;;;;;;;;;;;;;34.86;38.20;99377.63;6156517;23;19940;-64
2023/07/30 12:37:10;;;;;;;;;;;;;;;35.30;34.69;99378.78;6153700;23;20335;-62
2023/07/30 12:39:36;;;;;;;;;;;;;;;35.48;36.59;99374.13;6157550;23;19912;-66
2023/07/30 12:42:01;;;;;;;;;;;;;;;35.83;35.03;99371.97;6156898;23;19959;-63